sensor_id;sensor_type;location;lat;lon;timestamp;P1;durP1;ratioP1;P2;durP2;ratioP2
16352;SDS011;8286;51.274;9.542;2023-07-13T00:01:51;3.72;;;1.58;;
16352;SDS011;8286;51.274;9.542;2023-07-13T00:04:19;1.55;;;1.25;;
16352;SDS011;8286;51.274;9.542;2023-07-13T00:06:47;1.88;;;1.48;;
16352;SDS011;8286;51.274;9.542;2023-07-13T00:09:15;2.42;;;1.67;;
16352;SDS011;8286;51.274;9.542;2023-07-13T00:11:43;4.13;;;1.80;;
16352;SDS011;8286;51.274;9.542;2023-07-13T00:14:12;1.90;;;1.80;;
16352;SDS011;8286;51.274;9.542;2023-07-13T00:16:40;1.63;;;1.50;;
16352;SDS011;8286;51.274;9.542;2023-07-13T00:19:10;2.42;;;1.40;;
16352;SDS011;8286;51.274;9.542;2023-07-13T00:21:36;5.25;;;1.80;;
16352;SDS011;8286;51.274;9.542;2023-07-13T00:24:03;2.83;;;1.35;;
16352;SDS011;8286;51.274;9.542;2023-07-13T00:26:30;3.13;;;1.60;;
16352;SDS011;8286;51.274;9.542;2023-07-13T00:28:57;3.53;;;1.50;;
16352;SDS011;8286;51.274;9.542;2023-07-13T00:31:24;6.28;;;1.50;;
16352;SDS011;8286;51.274;9.542;2023-07-13T00:33:50;2.25;;;1.80;;
16352;SDS011;8286;51.274;9.542;2023-07-13T00:36:19;3.65;;;1.50;;
16352;SDS011;8286;51.274;9.542;2023-07-13T00:38:46;4.00;;;1.60;;
16352;SDS011;8286;51.274;9.542;2023-07-13T00:41:13;4.25;;;1.98;;
16352;SDS011;8286;51.274;9.542;2023-07-13T00:43:40;3.38;;;1.67;;
16352;SDS011;8286;51.274;9.542;2023-07-13T00:46:21;5.25;;;2.10;;
16352;SDS011;8286;51.274;9.542;2023-07-13T00:48:49;2.22;;;2.00;;
16352;SDS011;8286;51.274;9.542;2023-07-13T00:51:20;3.95;;;1.58;;
16352;SDS011;8286;51.274;9.542;2023-07-13T00:53:48;3.33;;;1.83;;
16352;SDS011;8286;51.274;9.542;2023-07-13T00:56:15;3.30;;;1.70;;
16352;SDS011;8286;51.274;9.542;2023-07-13T00:58:42;3.83;;;1.83;;
16352;SDS011;8286;51.274;9.542;2023-07-13T01:01:09;3.15;;;1.60;;
16352;SDS011;8286;51.274;9.542;2023-07-13T01:03:38;2.60;;;2.10;;
16352;SDS011;8286;51.274;9.542;2023-07-13T01:06:05;3.45;;;2.00;;
16352;SDS011;8286;51.274;9.542;2023-07-13T01:08:33;1.73;;;1.63;;
16352;SDS011;8286;51.274;9.542;2023-07-13T01:11:00;2.17;;;1.65;;
16352;SDS011;8286;51.274;9.542;2023-07-13T01:13:26;6.32;;;1.60;;
16352;SDS011;8286;51.274;9.542;2023-07-13T01:15:53;4.72;;;1.90;;
16352;SDS011;8286;51.274;9.542;2023-07-13T01:18:22;2.45;;;1.60;;
16352;SDS011;8286;51.274;9.542;2023-07-13T01:20:52;2.10;;;1.90;;
16352;SDS011;8286;51.274;9.542;2023-07-13T01:23:19;2.92;;;1.70;;
16352;SDS011;8286;51.274;9.542;2023-07-13T01:25:46;3.35;;;2.10;;
16352;SDS011;8286;51.274;9.542;2023-07-13T01:28:13;2.55;;;1.80;;
16352;SDS011;8286;51.274;9.542;2023-07-13T01:30:41;3.05;;;1.55;;
16352;SDS011;8286;51.274;9.542;2023-07-13T01:33:10;2.63;;;1.70;;
16352;SDS011;8286;51.274;9.542;2023-07-13T01:35:37;4.75;;;1.83;;
16352;SDS011;8286;51.274;9.542;2023-07-13T01:38:05;5.30;;;1.92;;
16352;SDS011;8286;51.274;9.542;2023-07-13T01:40:33;7.32;;;2.35;;
16352;SDS011;8286;51.274;9.542;2023-07-13T01:43:00;3.10;;;1.95;;
16352;SDS011;8286;51.274;9.542;2023-07-13T01:45:27;3.20;;;2.10;;
16352;SDS011;8286;51.274;9.542;2023-07-13T01:47:53;2.90;;;2.22;;
16352;SDS011;8286;51.274;9.542;2023-07-13T01:50:20;4.05;;;2.08;;
16352;SDS011;8286;51.274;9.542;2023-07-13T01:52:46;5.05;;;1.92;;
16352;SDS011;8286;51.274;9.542;2023-07-13T01:55:14;4.30;;;1.83;;
16352;SDS011;8286;51.274;9.542;2023-07-13T01:57:41;1.58;;;1.48;;
16352;SDS011;8286;51.274;9.542;2023-07-13T02:00:09;2.30;;;1.60;;
16352;SDS011;8286;51.274;9.542;2023-07-13T02:02:36;3.30;;;1.80;;
16352;SDS011;8286;51.274;9.542;2023-07-13T02:05:03;4.22;;;2.35;;
16352;SDS011;8286;51.274;9.542;2023-07-13T02:07:30;6.25;;;1.80;;
16352;SDS011;8286;51.274;9.542;2023-07-13T02:09:57;2.15;;;1.92;;
16352;SDS011;8286;51.274;9.542;2023-07-13T02:12:25;5.43;;;1.90;;
16352;SDS011;8286;51.274;9.542;2023-07-13T02:14:51;4.95;;;1.77;;
16352;SDS011;8286;51.274;9.542;2023-07-13T02:17:18;2.55;;;1.70;;
16352;SDS011;8286;51.274;9.542;2023-07-13T02:19:45;3.28;;;1.70;;
16352;SDS011;8286;51.274;9.542;2023-07-13T02:22:11;3.63;;;2.10;;
16352;SDS011;8286;51.274;9.542;2023-07-13T02:24:38;3.30;;;2.00;;
16352;SDS011;8286;51.274;9.542;2023-07-13T02:27:05;5.35;;;2.00;;
16352;SDS011;8286;51.274;9.542;2023-07-13T02:29:33;4.03;;;1.88;;
16352;SDS011;8286;51.274;9.542;2023-07-13T02:31:59;2.58;;;2.00;;
16352;SDS011;8286;51.274;9.542;2023-07-13T02:34:26;5.00;;;2.03;;
16352;SDS011;8286;51.274;9.542;2023-07-13T02:36:52;4.57;;;2.20;;
16352;SDS011;8286;51.274;9.542;2023-07-13T02:39:19;1.92;;;1.75;;
16352;SDS011;8286;51.274;9.542;2023-07-13T02:41:45;2.33;;;2.03;;
16352;SDS011;8286;51.274;9.542;2023-07-13T02:44:12;2.20;;;1.98;;
16352;SDS011;8286;51.274;9.542;2023-07-13T02:46:40;3.97;;;2.33;;
16352;SDS011;8286;51.274;9.542;2023-07-13T02:49:07;2.47;;;2.00;;
16352;SDS011;8286;51.274;9.542;2023-07-13T02:51:33;2.75;;;2.38;;
16352;SDS011;8286;51.274;9.542;2023-07-13T02:54:00;4.70;;;2.08;;
16352;SDS011;8286;51.274;9.542;2023-07-13T02:56:27;3.58;;;2.17;;
16352;SDS011;8286;51.274;9.542;2023-07-13T02:58:55;2.65;;;2.28;;
16352;SDS011;8286;51.274;9.542;2023-07-13T03:01:22;2.85;;;2.08;;
16352;SDS011;8286;51.274;9.542;2023-07-13T03:03:50;4.75;;;2.53;;
16352;SDS011;8286;51.274;9.542;2023-07-13T03:06:17;2.50;;;2.10;;
16352;SDS011;8286;51.274;9.542;2023-07-13T03:08:44;2.83;;;2.30;;
16352;SDS011;8286;51.274;9.542;2023-07-13T03:11:12;2.25;;;2.10;;
16352;SDS011;8286;51.274;9.542;2023-07-13T03:13:40;2.10;;;1.90;;
16352;SDS011;8286;51.274;9.542;2023-07-13T03:16:07;2.40;;;2.20;;
16352;SDS011;8286;51.274;9.542;2023-07-13T03:18:35;5.80;;;2.45;;
16352;SDS011;8286;51.274;9.542;2023-07-13T03:21:04;3.13;;;2.10;;
16352;SDS011;8286;51.274;9.542;2023-07-13T03:23:31;2.22;;;2.03;;
16352;SDS011;8286;51.274;9.542;2023-07-13T03:26:01;4.05;;;2.10;;
16352;SDS011;8286;51.274;9.542;2023-07-13T03:28:29;4.07;;;2.22;;
16352;SDS011;8286;51.274;9.542;2023-07-13T03:30:59;3.88;;;2.83;;
16352;SDS011;8286;51.274;9.542;2023-07-13T03:33:26;3.25;;;2.60;;
16352;SDS011;8286;51.274;9.542;2023-07-13T03:35:53;2.35;;;2.17;;
16352;SDS011;8286;51.274;9.542;2023-07-13T03:38:21;2.85;;;2.25;;
16352;SDS011;8286;51.274;9.542;2023-07-13T03:40:48;5.40;;;2.30;;
16352;SDS011;8286;51.274;9.542;2023-07-13T03:43:15;3.47;;;2.92;;
16352;SDS011;8286;51.274;9.542;2023-07-13T03:45:41;5.80;;;2.38;;
16352;SDS011;8286;51.274;9.542;2023-07-13T03:48:08;6.40;;;1.90;;
16352;SDS011;8286;51.274;9.542;2023-07-13T03:50:35;5.78;;;2.20;;
16352;SDS011;8286;51.274;9.542;2023-07-13T03:53:01;3.47;;;2.10;;
16352;SDS011;8286;51.274;9.542;2023-07-13T03:55:29;7.50;;;2.38;;
16352;SDS011;8286;51.274;9.542;2023-07-13T03:57:57;4.32;;;2.15;;
16352;SDS011;8286;51.274;9.542;2023-07-13T04:00:25;3.45;;;2.38;;
16352;SDS011;8286;51.274;9.542;2023-07-13T04:02:52;4.18;;;2.25;;
16352;SDS011;8286;51.274;9.542;2023-07-13T04:05:18;4.50;;;2.35;;
16352;SDS011;8286;51.274;9.542;2023-07-13T04:07:45;7.65;;;2.40;;
16352;SDS011;8286;51.274;9.542;2023-07-13T04:10:12;6.25;;;2.47;;
16352;SDS011;8286;51.274;9.542;2023-07-13T04:12:39;3.83;;;2.65;;
16352;SDS011;8286;51.274;9.542;2023-07-13T04:15:07;5.05;;;2.83;;
16352;SDS011;8286;51.274;9.542;2023-07-13T04:17:34;2.53;;;2.17;;
16352;SDS011;8286;51.274;9.542;2023-07-13T04:20:00;6.13;;;2.45;;
16352;SDS011;8286;51.274;9.542;2023-07-13T04:22:27;7.13;;;2.33;;
16352;SDS011;8286;51.274;9.542;2023-07-13T04:24:54;7.47;;;2.63;;
16352;SDS011;8286;51.274;9.542;2023-07-13T04:27:20;3.33;;;2.45;;
16352;SDS011;8286;51.274;9.542;2023-07-13T04:29:49;2.90;;;2.05;;
16352;SDS011;8286;51.274;9.542;2023-07-13T04:32:16;2.65;;;2.03;;
16352;SDS011;8286;51.274;9.542;2023-07-13T04:34:43;3.33;;;2.03;;
16352;SDS011;8286;51.274;9.542;2023-07-13T04:37:09;2.38;;;1.88;;
16352;SDS011;8286;51.274;9.542;2023-07-13T04:39:36;2.75;;;2.10;;
16352;SDS011;8286;51.274;9.542;2023-07-13T04:42:03;5.82;;;2.08;;
16352;SDS011;8286;51.274;9.542;2023-07-13T04:44:29;3.45;;;1.73;;
16352;SDS011;8286;51.274;9.542;2023-07-13T04:46:58;4.20;;;1.85;;
16352;SDS011;8286;51.274;9.542;2023-07-13T04:49:24;4.18;;;1.95;;
16352;SDS011;8286;51.274;9.542;2023-07-13T04:51:51;2.13;;;1.70;;
16352;SDS011;8286;51.274;9.542;2023-07-13T04:54:17;3.65;;;2.25;;
16352;SDS011;8286;51.274;9.542;2023-07-13T04:56:44;1.83;;;1.73;;
16352;SDS011;8286;51.274;9.542;2023-07-13T04:59:10;6.20;;;2.00;;
16352;SDS011;8286;51.274;9.542;2023-07-13T05:01:37;2.33;;;1.90;;
16352;SDS011;8286;51.274;9.542;2023-07-13T05:04:05;4.57;;;1.52;;
16352;SDS011;8286;51.274;9.542;2023-07-13T05:06:32;1.67;;;1.42;;
16352;SDS011;8286;51.274;9.542;2023-07-13T05:08:59;4.88;;;1.98;;
16352;SDS011;8286;51.274;9.542;2023-07-13T05:11:25;1.45;;;1.38;;
16352;SDS011;8286;51.274;9.542;2023-07-13T05:13:52;3.70;;;1.50;;
16352;SDS011;8286;51.274;9.542;2023-07-13T05:16:18;2.13;;;1.40;;
16352;SDS011;8286;51.274;9.542;2023-07-13T05:18:45;3.58;;;1.40;;
16352;SDS011;8286;51.274;9.542;2023-07-13T05:21:13;6.13;;;1.60;;
16352;SDS011;8286;51.274;9.542;2023-07-13T05:23:39;5.22;;;1.55;;
16352;SDS011;8286;51.274;9.542;2023-07-13T05:26:07;4.10;;;1.65;;
16352;SDS011;8286;51.274;9.542;2023-07-13T05:28:33;2.65;;;1.63;;
16352;SDS011;8286;51.274;9.542;2023-07-13T05:31:00;5.53;;;1.42;;
16352;SDS011;8286;51.274;9.542;2023-07-13T05:33:27;3.28;;;1.50;;
16352;SDS011;8286;51.274;9.542;2023-07-13T05:35:53;4.00;;;1.33;;
16352;SDS011;8286;51.274;9.542;2023-07-13T05:38:21;1.63;;;1.50;;
16352;SDS011;8286;51.274;9.542;2023-07-13T05:40:48;2.53;;;1.30;;
16352;SDS011;8286;51.274;9.542;2023-07-13T05:43:15;2.10;;;1.33;;
16352;SDS011;8286;51.274;9.542;2023-07-13T05:45:42;5.13;;;2.03;;
16352;SDS011;8286;51.274;9.542;2023-07-13T05:48:08;2.95;;;1.65;;
16352;SDS011;8286;51.274;9.542;2023-07-13T05:50:35;4.43;;;1.67;;
16352;SDS011;8286;51.274;9.542;2023-07-13T05:53:01;2.00;;;1.13;;
16352;SDS011;8286;51.274;9.542;2023-07-13T05:55:29;2.80;;;1.40;;
16352;SDS011;8286;51.274;9.542;2023-07-13T05:57:56;3.60;;;1.35;;
16352;SDS011;8286;51.274;9.542;2023-07-13T06:00:23;3.70;;;1.70;;
16352;SDS011;8286;51.274;9.542;2023-07-13T06:02:50;1.88;;;1.60;;
16352;SDS011;8286;51.274;9.542;2023-07-13T06:05:16;4.68;;;1.52;;
16352;SDS011;8286;51.274;9.542;2023-07-13T06:07:43;3.70;;;1.83;;
16352;SDS011;8286;51.274;9.542;2023-07-13T06:10:10;4.45;;;2.00;;
16352;SDS011;8286;51.274;9.542;2023-07-13T06:12:38;1.38;;;1.25;;
16352;SDS011;8286;51.274;9.542;2023-07-13T06:15:05;1.42;;;1.20;;
16352;SDS011;8286;51.274;9.542;2023-07-13T06:17:32;2.50;;;1.25;;
16352;SDS011;8286;51.274;9.542;2023-07-13T06:19:59;5.45;;;1.30;;
16352;SDS011;8286;51.274;9.542;2023-07-13T06:22:25;4.15;;;1.50;;
16352;SDS011;8286;51.274;9.542;2023-07-13T06:24:52;3.55;;;1.20;;
16352;SDS011;8286;51.274;9.542;2023-07-13T06:27:18;3.50;;;1.70;;
16352;SDS011;8286;51.274;9.542;2023-07-13T06:29:46;4.07;;;1.73;;
16352;SDS011;8286;51.274;9.542;2023-07-13T06:32:13;4.93;;;1.70;;
16352;SDS011;8286;51.274;9.542;2023-07-13T06:34:39;2.90;;;1.90;;
16352;SDS011;8286;51.274;9.542;2023-07-13T06:37:06;7.63;;;1.60;;
16352;SDS011;8286;51.274;9.542;2023-07-13T06:39:33;2.28;;;1.20;;
16352;SDS011;8286;51.274;9.542;2023-07-13T06:41:59;5.00;;;1.63;;
16352;SDS011;8286;51.274;9.542;2023-07-13T06:44:26;3.67;;;1.75;;
16352;SDS011;8286;51.274;9.542;2023-07-13T06:46:54;3.88;;;1.42;;
16352;SDS011;8286;51.274;9.542;2023-07-13T06:49:20;3.50;;;1.52;;
16352;SDS011;8286;51.274;9.542;2023-07-13T06:51:47;4.35;;;1.48;;
16352;SDS011;8286;51.274;9.542;2023-07-13T06:54:13;3.05;;;1.30;;
16352;SDS011;8286;51.274;9.542;2023-07-13T06:56:40;4.30;;;1.45;;
16352;SDS011;8286;51.274;9.542;2023-07-13T06:59:06;3.42;;;1.13;;
16352;SDS011;8286;51.274;9.542;2023-07-13T07:01:33;6.88;;;1.65;;
16352;SDS011;8286;51.274;9.542;2023-07-13T07:04:01;1.60;;;1.05;;
16352;SDS011;8286;51.274;9.542;2023-07-13T07:06:27;1.38;;;1.10;;
16352;SDS011;8286;51.274;9.542;2023-07-13T07:08:54;1.10;;;1.10;;
16352;SDS011;8286;51.274;9.542;2023-07-13T07:11:21;1.88;;;1.17;;
16352;SDS011;8286;51.274;9.542;2023-07-13T07:13:49;2.05;;;0.90;;
16352;SDS011;8286;51.274;9.542;2023-07-13T07:16:15;3.03;;;1.17;;
16352;SDS011;8286;51.274;9.542;2023-07-13T07:18:42;2.80;;;1.30;;
16352;SDS011;8286;51.274;9.542;2023-07-13T07:21:10;2.38;;;0.82;;
16352;SDS011;8286;51.274;9.542;2023-07-13T07:23:37;3.53;;;1.40;;
16352;SDS011;8286;51.274;9.542;2023-07-13T07:26:03;5.45;;;1.52;;
16352;SDS011;8286;51.274;9.542;2023-07-13T07:28:30;1.42;;;1.20;;
16352;SDS011;8286;51.274;9.542;2023-07-13T07:30:57;2.58;;;1.33;;
16352;SDS011;8286;51.274;9.542;2023-07-13T07:33:24;4.75;;;1.40;;
16352;SDS011;8286;51.274;9.542;2023-07-13T07:35:51;3.58;;;1.15;;
16352;SDS011;8286;51.274;9.542;2023-07-13T07:38:19;3.50;;;1.00;;
16352;SDS011;8286;51.274;9.542;2023-07-13T07:40:46;2.65;;;1.05;;
16352;SDS011;8286;51.274;9.542;2023-07-13T07:43:13;4.93;;;0.93;;
16352;SDS011;8286;51.274;9.542;2023-07-13T07:45:39;2.78;;;1.00;;
16352;SDS011;8286;51.274;9.542;2023-07-13T07:48:06;2.15;;;1.08;;
16352;SDS011;8286;51.274;9.542;2023-07-13T07:50:35;2.25;;;0.90;;
16352;SDS011;8286;51.274;9.542;2023-07-13T07:53:01;3.17;;;1.00;;
16352;SDS011;8286;51.274;9.542;2023-07-13T07:55:29;1.60;;;0.90;;
16352;SDS011;8286;51.274;9.542;2023-07-13T07:57:59;3.58;;;1.20;;
16352;SDS011;8286;51.274;9.542;2023-07-13T08:00:25;1.75;;;0.93;;
16352;SDS011;8286;51.274;9.542;2023-07-13T08:02:54;0.82;;;0.82;;
16352;SDS011;8286;51.274;9.542;2023-07-13T08:05:20;2.05;;;1.00;;
16352;SDS011;8286;51.274;9.542;2023-07-13T08:07:47;1.40;;;1.10;;
16352;SDS011;8286;51.274;9.542;2023-07-13T08:10:14;0.85;;;0.80;;
16352;SDS011;8286;51.274;9.542;2023-07-13T08:12:41;1.20;;;1.10;;
16352;SDS011;8286;51.274;9.542;2023-07-13T08:15:09;2.72;;;1.05;;
16352;SDS011;8286;51.274;9.542;2023-07-13T08:17:38;2.95;;;1.13;;
16352;SDS011;8286;51.274;9.542;2023-07-13T08:20:05;3.78;;;1.05;;
16352;SDS011;8286;51.274;9.542;2023-07-13T08:22:32;2.38;;;1.10;;
16352;SDS011;8286;51.274;9.542;2023-07-13T08:24:58;1.00;;;1.00;;
16352;SDS011;8286;51.274;9.542;2023-07-13T08:27:26;1.88;;;1.35;;
16352;SDS011;8286;51.274;9.542;2023-07-13T08:29:54;4.20;;;1.23;;
16352;SDS011;8286;51.274;9.542;2023-07-13T08:32:21;0.85;;;0.80;;
16352;SDS011;8286;51.274;9.542;2023-07-13T08:34:49;3.38;;;1.10;;
16352;SDS011;8286;51.274;9.542;2023-07-13T08:37:16;1.80;;;1.00;;
16352;SDS011;8286;51.274;9.542;2023-07-13T08:39:43;2.25;;;0.93;;
16352;SDS011;8286;51.274;9.542;2023-07-13T08:42:11;1.17;;;0.75;;
16352;SDS011;8286;51.274;9.542;2023-07-13T08:44:43;3.47;;;0.75;;
16352;SDS011;8286;51.274;9.542;2023-07-13T08:47:16;1.50;;;0.98;;
16352;SDS011;8286;51.274;9.542;2023-07-13T08:49:43;1.70;;;1.27;;
16352;SDS011;8286;51.274;9.542;2023-07-13T08:52:11;1.98;;;1.08;;
16352;SDS011;8286;51.274;9.542;2023-07-13T08:54:40;1.88;;;1.17;;
16352;SDS011;8286;51.274;9.542;2023-07-13T08:57:10;1.35;;;0.90;;
16352;SDS011;8286;51.274;9.542;2023-07-13T08:59:38;1.92;;;0.95;;
16352;SDS011;8286;51.274;9.542;2023-07-13T09:04:54;11.80;;;1.52;;
16352;SDS011;8286;51.274;9.542;2023-07-13T09:07:25;1.52;;;0.75;;
16352;SDS011;8286;51.274;9.542;2023-07-13T09:10:03;1.15;;;1.05;;
16352;SDS011;8286;51.274;9.542;2023-07-13T09:12:35;1.05;;;0.95;;
16352;SDS011;8286;51.274;9.542;2023-07-13T09:15:14;1.58;;;0.88;;
16352;SDS011;8286;51.274;9.542;2023-07-13T09:17:47;3.13;;;0.70;;
16352;SDS011;8286;51.274;9.542;2023-07-13T09:20:17;1.60;;;1.23;;
16352;SDS011;8286;51.274;9.542;2023-07-13T09:22:48;1.25;;;1.13;;
16352;SDS011;8286;51.274;9.542;2023-07-13T09:25:20;1.55;;;1.13;;
16352;SDS011;8286;51.274;9.542;2023-07-13T09:27:50;1.23;;;1.00;;
16352;SDS011;8286;51.274;9.542;2023-07-13T09:30:23;2.28;;;0.90;;
16352;SDS011;8286;51.274;9.542;2023-07-13T09:32:54;0.60;;;0.60;;
16352;SDS011;8286;51.274;9.542;2023-07-13T09:35:25;2.08;;;1.00;;
16352;SDS011;8286;51.274;9.542;2023-07-13T09:37:57;2.55;;;1.05;;
16352;SDS011;8286;51.274;9.542;2023-07-13T09:40:24;2.95;;;1.00;;
16352;SDS011;8286;51.274;9.542;2023-07-13T09:42:56;1.05;;;0.95;;
16352;SDS011;8286;51.274;9.542;2023-07-13T09:45:27;2.00;;;0.88;;
16352;SDS011;8286;51.274;9.542;2023-07-13T09:48:05;2.30;;;1.30;;
16352;SDS011;8286;51.274;9.542;2023-07-13T09:50:33;3.15;;;1.05;;
16352;SDS011;8286;51.274;9.542;2023-07-13T09:53:00;3.55;;;0.90;;
16352;SDS011;8286;51.274;9.542;2023-07-13T09:55:29;2.38;;;0.95;;
16352;SDS011;8286;51.274;9.542;2023-07-13T09:57:57;3.05;;;1.10;;
16352;SDS011;8286;51.274;9.542;2023-07-13T10:00:25;2.53;;;0.93;;
16352;SDS011;8286;51.274;9.542;2023-07-13T10:03:02;3.60;;;0.60;;
16352;SDS011;8286;51.274;9.542;2023-07-13T10:05:38;1.48;;;1.13;;
16352;SDS011;8286;51.274;9.542;2023-07-13T10:08:09;0.60;;;0.60;;
16352;SDS011;8286;51.274;9.542;2023-07-13T10:10:45;3.08;;;1.00;;
16352;SDS011;8286;51.274;9.542;2023-07-13T10:13:25;0.80;;;0.80;;
16352;SDS011;8286;51.274;9.542;2023-07-13T10:15:54;2.47;;;1.00;;
16352;SDS011;8286;51.274;9.542;2023-07-13T10:18:23;4.38;;;1.05;;
16352;SDS011;8286;51.274;9.542;2023-07-13T10:20:51;1.48;;;1.08;;
16352;SDS011;8286;51.274;9.542;2023-07-13T10:23:21;0.90;;;0.90;;
16352;SDS011;8286;51.274;9.542;2023-07-13T10:25:50;1.10;;;0.85;;
16352;SDS011;8286;51.274;9.542;2023-07-13T10:28:21;2.20;;;1.17;;
16352;SDS011;8286;51.274;9.542;2023-07-13T10:30:52;1.00;;;0.70;;
16352;SDS011;8286;51.274;9.542;2023-07-13T10:33:19;4.03;;;1.10;;
16352;SDS011;8286;51.274;9.542;2023-07-13T10:35:49;1.27;;;1.23;;
16352;SDS011;8286;51.274;9.542;2023-07-13T10:38:19;0.98;;;0.98;;
16352;SDS011;8286;51.274;9.542;2023-07-13T10:40:51;1.83;;;1.25;;
16352;SDS011;8286;51.274;9.542;2023-07-13T10:43:22;2.38;;;1.00;;
16352;SDS011;8286;51.274;9.542;2023-07-13T10:45:52;1.45;;;1.20;;
16352;SDS011;8286;51.274;9.542;2023-07-13T10:48:19;1.55;;;1.20;;
16352;SDS011;8286;51.274;9.542;2023-07-13T10:50:49;1.15;;;1.05;;
16352;SDS011;8286;51.274;9.542;2023-07-13T10:53:18;1.40;;;1.10;;
16352;SDS011;8286;51.274;9.542;2023-07-13T10:55:56;1.02;;;1.00;;
16352;SDS011;8286;51.274;9.542;2023-07-13T10:58:28;2.92;;;1.05;;
16352;SDS011;8286;51.274;9.542;2023-07-13T11:01:03;2.13;;;1.27;;
16352;SDS011;8286;51.274;9.542;2023-07-13T11:03:35;2.75;;;1.05;;
16352;SDS011;8286;51.274;9.542;2023-07-13T11:06:11;3.20;;;1.10;;
16352;SDS011;8286;51.274;9.542;2023-07-13T11:08:50;3.33;;;0.93;;
16352;SDS011;8286;51.274;9.542;2023-07-13T11:11:35;3.33;;;1.00;;
16352;SDS011;8286;51.274;9.542;2023-07-13T11:14:03;2.22;;;1.25;;
16352;SDS011;8286;51.274;9.542;2023-07-13T11:16:37;0.80;;;0.80;;
16352;SDS011;8286;51.274;9.542;2023-07-13T11:19:24;1.20;;;1.10;;
16352;SDS011;8286;51.274;9.542;2023-07-13T11:22:10;3.20;;;1.13;;
16352;SDS011;8286;51.274;9.542;2023-07-13T11:24:49;0.88;;;0.88;;
16352;SDS011;8286;51.274;9.542;2023-07-13T11:27:21;2.03;;;0.98;;
16352;SDS011;8286;51.274;9.542;2023-07-13T11:29:51;1.42;;;0.77;;
16352;SDS011;8286;51.274;9.542;2023-07-13T11:32:22;1.88;;;0.88;;
16352;SDS011;8286;51.274;9.542;2023-07-13T11:34:51;3.13;;;1.20;;
16352;SDS011;8286;51.274;9.542;2023-07-13T11:37:21;5.38;;;1.00;;
16352;SDS011;8286;51.274;9.542;2023-07-13T11:39:48;3.80;;;0.90;;
16352;SDS011;8286;51.274;9.542;2023-07-13T11:42:17;1.17;;;0.90;;
16352;SDS011;8286;51.274;9.542;2023-07-13T11:44:46;1.42;;;0.70;;
16352;SDS011;8286;51.274;9.542;2023-07-13T11:47:14;1.40;;;0.90;;
16352;SDS011;8286;51.274;9.542;2023-07-13T11:49:51;1.80;;;1.08;;
16352;SDS011;8286;51.274;9.542;2023-07-13T11:52:23;1.52;;;1.17;;
16352;SDS011;8286;51.274;9.542;2023-07-13T11:54:55;2.50;;;0.90;;
16352;SDS011;8286;51.274;9.542;2023-07-13T11:57:23;0.95;;;0.63;;
16352;SDS011;8286;51.274;9.542;2023-07-13T11:59:51;3.05;;;0.88;;
16352;SDS011;8286;51.274;9.542;2023-07-13T12:02:25;0.73;;;0.70;;
16352;SDS011;8286;51.274;9.542;2023-07-13T12:04:54;0.70;;;0.70;;
16352;SDS011;8286;51.274;9.542;2023-07-13T12:07:21;1.60;;;0.90;;
16352;SDS011;8286;51.274;9.542;2023-07-13T12:09:49;1.58;;;1.05;;
16352;SDS011;8286;51.274;9.542;2023-07-13T12:12:17;1.60;;;0.82;;
16352;SDS011;8286;51.274;9.542;2023-07-13T12:14:45;0.75;;;0.75;;
16352;SDS011;8286;51.274;9.542;2023-07-13T12:17:16;1.30;;;0.80;;
16352;SDS011;8286;51.274;9.542;2023-07-13T12:19:45;0.80;;;0.80;;
16352;SDS011;8286;51.274;9.542;2023-07-13T12:22:13;1.33;;;1.00;;
16352;SDS011;8286;51.274;9.542;2023-07-13T12:24:42;1.27;;;0.90;;
16352;SDS011;8286;51.274;9.542;2023-07-13T12:27:19;0.90;;;0.90;;
16352;SDS011;8286;51.274;9.542;2023-07-13T12:29:51;0.75;;;0.75;;
16352;SDS011;8286;51.274;9.542;2023-07-13T12:32:20;2.70;;;0.80;;
16352;SDS011;8286;51.274;9.542;2023-07-13T12:34:51;0.85;;;0.82;;
16352;SDS011;8286;51.274;9.542;2023-07-13T12:37:18;0.68;;;0.68;;
16352;SDS011;8286;51.274;9.542;2023-07-13T12:39:46;1.38;;;0.88;;
16352;SDS011;8286;51.274;9.542;2023-07-13T12:42:17;1.95;;;0.90;;
16352;SDS011;8286;51.274;9.542;2023-07-13T12:44:48;2.03;;;1.00;;
16352;SDS011;8286;51.274;9.542;2023-07-13T12:47:15;0.95;;;0.70;;
16352;SDS011;8286;51.274;9.542;2023-07-13T12:49:43;1.00;;;0.90;;
16352;SDS011;8286;51.274;9.542;2023-07-13T12:52:15;1.00;;;0.90;;
16352;SDS011;8286;51.274;9.542;2023-07-13T12:54:53;2.50;;;0.65;;
16352;SDS011;8286;51.274;9.542;2023-07-13T12:57:22;2.03;;;0.80;;
16352;SDS011;8286;51.274;9.542;2023-07-13T12:59:51;1.00;;;0.82;;
16352;SDS011;8286;51.274;9.542;2023-07-13T13:02:21;0.85;;;0.70;;
16352;SDS011;8286;51.274;9.542;2023-07-13T13:04:53;2.90;;;0.93;;
16352;SDS011;8286;51.274;9.542;2023-07-13T13:07:21;1.10;;;0.85;;
16352;SDS011;8286;51.274;9.542;2023-07-13T13:09:47;1.63;;;0.80;;
16352;SDS011;8286;51.274;9.542;2023-07-13T13:12:15;3.05;;;1.00;;
16352;SDS011;8286;51.274;9.542;2023-07-13T13:14:42;1.05;;;0.80;;
16352;SDS011;8286;51.274;9.542;2023-07-13T13:17:14;1.30;;;1.13;;
16352;SDS011;8286;51.274;9.542;2023-07-13T13:19:44;1.15;;;1.05;;
16352;SDS011;8286;51.274;9.542;2023-07-13T13:22:11;0.95;;;0.90;;
16352;SDS011;8286;51.274;9.542;2023-07-13T13:24:38;1.50;;;1.23;;
16352;SDS011;8286;51.274;9.542;2023-07-13T13:27:08;1.08;;;0.98;;
16352;SDS011;8286;51.274;9.542;2023-07-13T13:29:40;1.55;;;0.85;;
16352;SDS011;8286;51.274;9.542;2023-07-13T13:32:09;3.72;;;1.38;;
16352;SDS011;8286;51.274;9.542;2023-07-13T13:34:36;0.98;;;0.90;;
16352;SDS011;8286;51.274;9.542;2023-07-13T13:37:03;1.13;;;1.00;;
16352;SDS011;8286;51.274;9.542;2023-07-13T13:39:32;2.05;;;1.02;;
16352;SDS011;8286;51.274;9.542;2023-07-13T13:42:00;0.90;;;0.90;;
16352;SDS011;8286;51.274;9.542;2023-07-13T13:44:27;1.13;;;0.80;;
16352;SDS011;8286;51.274;9.542;2023-07-13T13:46:55;1.20;;;1.00;;
16352;SDS011;8286;51.274;9.542;2023-07-13T13:49:23;1.52;;;0.90;;
16352;SDS011;8286;51.274;9.542;2023-07-13T13:51:51;1.98;;;0.95;;
16352;SDS011;8286;51.274;9.542;2023-07-13T13:54:18;2.25;;;1.15;;
16352;SDS011;8286;51.274;9.542;2023-07-13T13:56:46;5.90;;;1.33;;
16352;SDS011;8286;51.274;9.542;2023-07-13T13:59:14;2.20;;;1.30;;
16352;SDS011;8286;51.274;9.542;2023-07-13T14:01:41;2.65;;;1.10;;
16352;SDS011;8286;51.274;9.542;2023-07-13T14:04:10;1.35;;;1.20;;
16352;SDS011;8286;51.274;9.542;2023-07-13T14:06:42;1.40;;;1.10;;
16352;SDS011;8286;51.274;9.542;2023-07-13T14:09:09;1.10;;;1.10;;
16352;SDS011;8286;51.274;9.542;2023-07-13T14:11:38;1.00;;;0.90;;
16352;SDS011;8286;51.274;9.542;2023-07-13T14:14:08;1.05;;;0.95;;
16352;SDS011;8286;51.274;9.542;2023-07-13T14:16:36;1.15;;;0.98;;
16352;SDS011;8286;51.274;9.542;2023-07-13T14:19:03;3.05;;;1.10;;
16352;SDS011;8286;51.274;9.542;2023-07-13T14:21:31;1.95;;;1.25;;
16352;SDS011;8286;51.274;9.542;2023-07-13T14:23:57;1.73;;;1.10;;
16352;SDS011;8286;51.274;9.542;2023-07-13T14:26:24;2.95;;;1.20;;
16352;SDS011;8286;51.274;9.542;2023-07-13T14:28:52;2.72;;;1.25;;
16352;SDS011;8286;51.274;9.542;2023-07-13T14:31:21;1.80;;;0.70;;
16352;SDS011;8286;51.274;9.542;2023-07-13T14:33:48;0.90;;;0.90;;
16352;SDS011;8286;51.274;9.542;2023-07-13T14:36:23;1.20;;;1.08;;
16352;SDS011;8286;51.274;9.542;2023-07-13T14:38:55;2.17;;;1.05;;
16352;SDS011;8286;51.274;9.542;2023-07-13T14:41:22;0.80;;;0.80;;
16352;SDS011;8286;51.274;9.542;2023-07-13T14:43:49;5.50;;;1.42;;
16352;SDS011;8286;51.274;9.542;2023-07-13T14:46:18;3.17;;;1.10;;
16352;SDS011;8286;51.274;9.542;2023-07-13T14:48:50;1.50;;;1.00;;
16352;SDS011;8286;51.274;9.542;2023-07-13T14:51:17;1.00;;;0.98;;
16352;SDS011;8286;51.274;9.542;2023-07-13T14:53:43;1.40;;;1.00;;
16352;SDS011;8286;51.274;9.542;2023-07-13T14:56:12;1.15;;;1.10;;
16352;SDS011;8286;51.274;9.542;2023-07-13T14:58:39;1.00;;;1.00;;
16352;SDS011;8286;51.274;9.542;2023-07-13T15:01:08;2.05;;;1.02;;
16352;SDS011;8286;51.274;9.542;2023-07-13T15:03:39;1.52;;;1.13;;
16352;SDS011;8286;51.274;9.542;2023-07-13T15:06:08;1.65;;;1.30;;
16352;SDS011;8286;51.274;9.542;2023-07-13T15:08:36;1.05;;;1.02;;
16352;SDS011;8286;51.274;9.542;2023-07-13T15:11:02;1.17;;;0.90;;